createdAt,value
2019-02-17T05:00:40.113Z,-4.95
2019-02-17T05:01:36.464Z,-4.83
2019-02-17T05:03:09.237Z,-4.83
2019-02-17T05:04:09.442Z,-4.79
2019-02-17T05:05:43.241Z,-4.71
2019-02-17T05:06:43.514Z,-4.74
2019-02-17T05:08:17.345Z,-4.77
2019-02-17T05:09:17.582Z,-4.76
2019-02-17T05:10:51.386Z,-4.71
2019-02-17T05:11:51.636Z,-4.73
2019-02-17T05:13:26.397Z,-4.74
2019-02-17T05:14:26.591Z,-4.79
2019-02-17T05:16:00.349Z,-4.84
2019-02-17T05:17:00.548Z,-4.81
2019-02-17T05:18:34.351Z,-4.81
2019-02-17T05:19:34.569Z,-4.84
2019-02-17T05:21:08.477Z,-4.94
2019-02-17T05:22:08.710Z,-4.83
2019-02-17T05:23:42.548Z,-4.83
2019-02-17T05:24:42.730Z,-4.91
2019-02-17T05:26:16.624Z,-4.90
2019-02-17T05:27:16.835Z,-4.81
2019-02-17T05:28:50.122Z,-4.80
2019-02-17T05:29:50.334Z,-4.90
2019-02-17T05:31:24.139Z,-4.79
2019-02-17T05:32:24.336Z,-4.87
2019-02-17T05:33:58.664Z,-4.81
2019-02-17T05:34:59.120Z,-4.80
2019-02-17T05:36:32.654Z,-4.84
2019-02-17T05:37:32.708Z,-4.84
2019-02-17T05:39:06.144Z,-4.84
2019-02-17T05:40:06.369Z,-4.97
2019-02-17T05:41:39.765Z,-4.92
2019-02-17T05:42:39.977Z,-4.97
2019-02-17T05:44:13.864Z,-4.98
2019-02-17T05:45:14.069Z,-4.95
2019-02-17T05:46:47.419Z,-4.94
2019-02-17T05:47:47.701Z,-4.94
2019-02-17T05:49:21.379Z,-5.00
2019-02-17T05:50:21.583Z,-5.02
2019-02-17T05:51:56.475Z,-5.10
2019-02-17T05:52:56.704Z,-5.19
2019-02-17T05:54:30.519Z,-5.06
2019-02-17T05:55:30.713Z,-5.16
2019-02-17T05:57:04.064Z,-5.21
2019-02-17T05:58:04.292Z,-5.17
2019-02-17T05:59:38.110Z,-5.01
2019-02-17T06:00:38.333Z,-4.88
2019-02-17T06:02:12.201Z,-4.77
2019-02-17T06:03:12.396Z,-4.70
2019-02-17T06:04:45.697Z,-4.62
2019-02-17T06:05:45.963Z,-4.49
2019-02-17T06:07:19.133Z,-4.51
2019-02-17T06:08:19.332Z,-4.47
2019-02-17T06:09:52.605Z,-4.45
2019-02-17T06:10:52.834Z,-4.41
2019-02-17T06:12:27.135Z,-4.49
2019-02-17T06:13:27.382Z,-4.47
2019-02-17T06:15:00.532Z,-4.44
2019-02-17T06:16:00.736Z,-4.49
2019-02-17T06:17:34.030Z,-4.47
2019-02-17T06:18:34.224Z,-4.58
2019-02-17T06:20:07.490Z,-4.67
2019-02-17T06:21:07.727Z,-4.59
2019-02-17T06:22:40.998Z,-4.59
2019-02-17T06:23:41.216Z,-4.63
2019-02-17T06:25:15.504Z,-4.53
2019-02-17T06:26:15.708Z,-4.62
2019-02-17T06:27:48.999Z,-4.73
2019-02-17T06:28:49.351Z,-4.65
2019-02-17T06:30:23.167Z,-4.58
2019-02-17T06:31:24.501Z,-4.65
2019-02-17T06:32:57.204Z,-4.51
2019-02-17T06:33:57.349Z,-4.51
2019-02-17T06:35:31.207Z,-4.56
2019-02-17T06:36:31.329Z,-4.53
2019-02-17T06:38:05.126Z,-4.52
2019-02-17T06:39:05.317Z,-4.53
2019-02-17T06:40:39.099Z,-4.49
2019-02-17T06:41:39.302Z,-4.49
2019-02-17T06:43:13.077Z,-4.45
2019-02-17T06:44:13.304Z,-4.45
2019-02-17T06:45:47.056Z,-4.30
2019-02-17T06:46:47.278Z,-4.37
2019-02-17T06:48:20.556Z,-4.37
2019-02-17T06:49:20.778Z,-4.40
2019-02-17T06:50:55.186Z,-4.38
2019-02-17T06:51:55.266Z,-4.38
2019-02-17T06:53:28.588Z,-4.27
2019-02-17T06:54:28.778Z,-4.38
2019-02-17T06:56:02.054Z,-4.26
2019-02-17T06:57:02.131Z,-4.31
2019-02-17T06:58:41.944Z,-4.26
2019-02-17T06:59:39.668Z,-4.24
2019-02-17T07:01:13.003Z,-4.06
2019-02-17T07:02:13.074Z,-4.06
2019-02-17T07:03:48.211Z,-4.02
2019-02-17T07:04:48.176Z,-3.90
2019-02-17T07:06:21.416Z,-3.87
2019-02-17T07:07:22.189Z,-3.80
2019-02-17T07:08:55.703Z,-3.77
2019-02-17T07:09:55.800Z,-3.81
2019-02-17T07:11:29.564Z,-3.83
2019-02-17T07:12:30.227Z,-3.85
2019-02-17T07:14:04.863Z,-3.83
2019-02-17T07:15:04.967Z,-3.85
2019-02-17T07:16:40.171Z,-3.81
2019-02-17T07:17:40.497Z,-3.80
2019-02-17T07:19:16.281Z,-3.74
2019-02-17T07:20:16.539Z,-3.75
2019-02-17T07:21:52.312Z,-3.66
2019-02-17T07:22:52.639Z,-3.58
2019-02-17T07:24:28.340Z,-3.44
2019-02-17T07:25:30.421Z,-3.64
2019-02-17T07:27:03.348Z,-3.48
2019-02-17T07:28:03.553Z,-3.38
2019-02-17T07:29:39.069Z,-3.33
2019-02-17T07:30:38.431Z,-3.32
2019-02-17T07:32:13.254Z,-3.22
2019-02-17T07:33:13.631Z,-3.08
2019-02-17T07:34:48.164Z,-2.87
2019-02-17T07:35:48.275Z,-2.73
2019-02-17T07:37:32.737Z,-2.55
2019-02-17T07:38:24.284Z,-2.44
2019-02-17T07:39:57.633Z,-2.22
2019-02-17T07:40:57.823Z,-2.08
2019-02-17T07:42:31.149Z,-1.79
2019-02-17T07:43:31.313Z,-1.50
2019-02-17T07:45:05.530Z,-1.29
2019-02-17T07:46:05.745Z,-1.00
2019-02-17T07:47:39.153Z,-0.45
2019-02-17T07:48:39.265Z,0.02
2019-02-17T07:50:13.299Z,0.68
2019-02-17T07:51:13.323Z,1.12
2019-02-17T07:52:47.158Z,1.67
2019-02-17T07:53:48.339Z,1.98
2019-02-17T07:55:22.611Z,2.68
2019-02-17T07:56:22.750Z,2.87
2019-02-17T07:57:56.932Z,3.26
2019-02-17T07:58:59.441Z,3.40
2019-02-17T08:00:31.309Z,3.95
2019-02-17T08:01:44.462Z,4.24
2019-02-17T08:03:09.457Z,4.38
2019-02-17T08:04:10.369Z,4.45
2019-02-17T08:05:43.201Z,4.82
2019-02-17T08:06:43.953Z,5.13
2019-02-17T08:08:18.111Z,5.41
2019-02-17T08:09:18.329Z,5.51
2019-02-17T08:10:52.122Z,5.70
2019-02-17T08:11:52.229Z,6.15
2019-02-17T08:13:25.446Z,6.47
2019-02-17T08:14:25.525Z,6.60
2019-02-17T08:15:58.953Z,6.86
2019-02-17T08:16:59.132Z,7.04
2019-02-17T08:18:32.430Z,7.31
2019-02-17T08:19:32.680Z,7.33
2019-02-17T08:21:05.849Z,7.48
2019-02-17T08:22:07.105Z,7.61
2019-02-17T08:23:39.848Z,8.27
2019-02-17T08:24:39.959Z,8.69
2019-02-17T08:26:13.725Z,9.02
2019-02-17T08:27:13.827Z,9.24
2019-02-17T08:28:47.647Z,9.39
2019-02-17T08:29:47.383Z,9.52
2019-02-17T08:31:20.599Z,9.72
2019-02-17T08:32:20.780Z,9.95
2019-02-17T10:10:20.550Z,20.64
2019-02-17T10:11:20.231Z,21.07
2019-02-17T10:12:53.456Z,21.58
2019-02-17T10:13:53.741Z,21.62
2019-02-17T10:15:28.165Z,20.33
2019-02-17T10:16:28.614Z,20.66
2019-02-17T10:18:00.859Z,20.75
2019-02-17T10:19:01.072Z,21.77
2019-02-17T10:20:34.387Z,22.03
2019-02-17T10:21:35.396Z,20.90
2019-02-17T10:23:08.883Z,20.80
2019-02-17T10:24:09.050Z,20.36
2019-02-17T10:25:42.047Z,20.19
2019-02-17T10:26:42.200Z,20.07
2019-02-17T10:28:16.435Z,19.96
2019-02-17T10:29:16.661Z,20.52
2019-02-17T10:30:49.857Z,21.51
2019-02-17T10:31:49.971Z,21.81
2019-02-17T10:33:23.865Z,21.43
2019-02-17T10:34:23.972Z,20.32
2019-02-17T10:35:58.021Z,21.07
2019-02-17T10:36:57.544Z,21.78
2019-02-17T10:38:32.396Z,21.75
2019-02-17T10:39:32.377Z,21.28
2019-02-17T10:41:06.684Z,21.84
2019-02-17T10:42:06.789Z,21.94
2019-02-17T10:43:41.109Z,22.55
2019-02-17T10:44:41.244Z,23.13
2019-02-17T10:46:15.469Z,22.23
2019-02-17T10:47:15.587Z,22.07
2019-02-17T10:48:48.929Z,22.49
2019-02-17T10:49:49.146Z,22.43
2019-02-17T10:51:22.443Z,22.16
2019-02-17T10:52:22.931Z,21.77
2019-02-17T10:53:56.251Z,20.04
2019-02-17T10:54:56.387Z,20.26
2019-02-17T10:56:29.730Z,20.67
2019-02-17T10:57:29.614Z,21.26
2019-02-17T10:59:03.963Z,22.00
2019-02-17T11:30:31.384Z,25.22
2019-02-17T11:31:32.615Z,25.31
2019-02-17T11:33:05.023Z,26.08
2019-02-17T11:34:06.425Z,26.39
2019-02-17T11:35:39.982Z,26.79
2019-02-17T11:36:40.226Z,27.04
2019-02-17T11:38:16.929Z,27.13
2019-02-17T11:39:17.033Z,26.93
2019-02-17T11:40:53.781Z,26.45
2019-02-17T11:41:53.902Z,26.82
2019-02-17T11:43:27.668Z,27.16
2019-02-17T11:44:27.768Z,27.13
2019-02-17T11:46:02.538Z,27.13
2019-02-17T11:47:02.810Z,26.85
2019-02-17T11:48:37.694Z,26.85
2019-02-17T11:49:38.277Z,27.11
2019-02-17T11:51:12.882Z,26.86
2019-02-17T11:52:13.195Z,27.03
2019-02-17T13:06:18.517Z,24.61
2019-02-17T13:07:19.814Z,25.07
2019-02-17T13:08:52.045Z,26.11
2019-02-17T13:09:52.286Z,26.23
2019-02-17T13:11:25.581Z,27.37
2019-02-17T13:12:25.862Z,27.63
2019-02-17T13:14:00.725Z,26.16
2019-02-17T13:15:00.959Z,26.22
2019-02-17T13:16:34.269Z,25.56
2019-02-17T13:17:34.467Z,24.63
2019-02-17T13:19:09.747Z,24.38
2019-02-17T13:20:09.972Z,24.44
2019-02-17T13:21:47.325Z,24.31
2019-02-17T13:22:47.539Z,24.31
2019-02-17T13:24:20.891Z,24.51
2019-02-17T13:25:21.012Z,24.03
2019-02-17T13:26:54.785Z,24.25
2019-02-17T13:27:54.993Z,23.84
2019-02-17T13:29:28.987Z,23.88
2019-02-17T13:30:29.104Z,24.41
2019-02-17T13:32:03.744Z,24.68
2019-02-17T13:33:03.865Z,24.56
2019-02-17T13:34:38.676Z,24.74
2019-02-17T13:35:38.741Z,24.47
2019-02-17T13:37:12.540Z,24.46
2019-02-17T13:38:12.771Z,24.46
2019-02-17T13:39:48.535Z,24.56
2019-02-17T13:40:48.631Z,24.74
2019-02-17T13:42:22.433Z,24.38
2019-02-17T13:43:22.659Z,23.45
2019-02-17T13:44:57.477Z,22.34
2019-02-17T13:45:57.683Z,21.50
2019-02-17T13:47:31.979Z,21.30
2019-02-17T13:48:31.875Z,21.10
2019-02-17T13:50:06.375Z,20.93
2019-02-17T13:51:06.608Z,21.30
2019-02-17T13:52:39.842Z,21.84
2019-02-17T13:53:39.953Z,22.22
2019-02-17T13:55:13.736Z,22.98
2019-02-17T13:56:13.970Z,22.88
2019-02-17T13:57:47.222Z,22.03
2019-02-17T13:58:47.431Z,21.88
2019-02-17T14:00:21.707Z,21.41
2019-02-17T14:01:21.973Z,21.77
2019-02-17T14:02:55.844Z,21.28
2019-02-17T14:03:55.934Z,20.96
